createdAt,value
2023-01-05T00:01:08.163Z,101160.03
2023-01-05T00:03:35.744Z,101145.91
2023-01-05T00:06:11.097Z,101143.53
2023-01-05T00:08:38.158Z,101140.31
2023-01-05T00:11:29.215Z,101145.03
2023-01-05T00:14:14.489Z,101144.34
2023-01-05T00:16:59.385Z,101143.94
2023-01-05T00:19:44.645Z,101144.13
2023-01-05T00:22:31.695Z,101145.00
2023-01-05T00:25:19.577Z,101151.06
2023-01-05T00:27:48.280Z,101148.81
2023-01-05T00:30:17.166Z,101149.59
2023-01-05T00:32:43.970Z,101158.81
2023-01-05T00:35:12.149Z,101154.69
2023-01-05T00:37:39.459Z,101154.78
2023-01-05T00:40:11.817Z,101160.19
2023-01-05T00:42:38.519Z,101162.16
2023-01-05T00:45:08.491Z,101175.13
2023-01-05T00:47:35.019Z,101176.88
2023-01-05T00:50:01.740Z,101188.09
2023-01-05T00:52:28.535Z,101200.75
2023-01-05T00:54:55.107Z,101204.19
2023-01-05T00:57:21.703Z,101217.97
2023-01-05T00:59:48.290Z,101242.91
2023-01-05T01:02:14.995Z,101254.97
2023-01-05T01:04:41.754Z,101269.19
2023-01-05T01:07:08.630Z,101282.03
2023-01-05T01:09:35.418Z,101288.63
2023-01-05T01:12:02.391Z,101304.81
2023-01-05T01:14:28.987Z,101313.72
2023-01-05T01:16:55.700Z,101317.94
2023-01-05T01:19:24.843Z,101331.59
2023-01-05T01:21:52.065Z,101336.78
2023-01-05T01:24:25.749Z,101335.78
2023-01-05T01:26:52.622Z,101339.91
2023-01-05T01:29:20.037Z,101350.00
2023-01-05T01:31:51.640Z,101339.53
2023-01-05T01:34:18.241Z,101332.75
2023-01-05T01:36:44.999Z,101348.16
2023-01-05T01:39:12.502Z,101335.88
2023-01-05T01:41:40.013Z,101334.81
2023-01-05T01:44:44.226Z,101325.88
2023-01-05T01:47:17.319Z,101321.66
2023-01-05T01:49:44.869Z,101320.41
2023-01-05T01:52:12.323Z,101310.38
2023-01-05T01:54:39.355Z,101295.88
2023-01-05T01:57:06.219Z,101292.44
2023-01-05T01:59:32.877Z,101285.97
2023-01-05T02:02:01.657Z,101281.84
2023-01-05T02:04:32.227Z,101281.03
2023-01-05T02:06:59.741Z,101282.13
2023-01-05T02:09:26.556Z,101290.66
2023-01-05T02:12:11.632Z,101286.56
2023-01-05T02:14:47.142Z,101288.41
2023-01-05T02:17:25.955Z,101290.56
2023-01-05T02:20:36.940Z,101287.41
2023-01-05T02:23:06.442Z,101294.97
2023-01-05T02:25:57.045Z,101302.06
2023-01-05T02:29:09.796Z,101303.81
2023-01-05T02:32:10.669Z,101311.44
2023-01-05T02:34:52.432Z,101314.91
2023-01-05T02:37:35.726Z,101305.78
2023-01-05T02:40:21.121Z,101310.38
2023-01-05T02:42:51.525Z,101315.00
2023-01-05T02:45:18.163Z,101312.72
2023-01-05T02:47:45.517Z,101318.63
2023-01-05T02:50:19.523Z,101331.19
2023-01-05T02:53:00.508Z,101337.47
2023-01-05T02:55:46.191Z,101330.09
2023-01-05T02:58:36.194Z,101329.41
2023-01-05T03:01:09.782Z,101327.28
2023-01-05T03:03:48.880Z,101326.75
2023-01-05T03:06:19.555Z,101329.50
2023-01-05T03:08:56.631Z,101331.28
2023-01-05T03:11:49.875Z,101333.84
2023-01-05T03:14:31.208Z,101320.59
2023-01-05T03:17:01.210Z,101325.69
2023-01-05T03:19:41.762Z,101333.66
2023-01-05T03:22:49.448Z,101331.88
2023-01-05T03:25:38.465Z,101320.59
2023-01-05T03:28:27.449Z,101319.69
2023-01-05T03:31:26.016Z,101314.69
2023-01-05T03:35:09.023Z,101312.31
2023-01-05T03:38:18.598Z,101304.56
2023-01-05T03:40:47.274Z,101302.13
2023-01-05T03:43:14.387Z,101303.19
2023-01-05T03:45:46.721Z,101299.09
2023-01-05T03:48:13.251Z,101299.34
2023-01-05T03:50:39.835Z,101304.19
2023-01-05T03:53:07.954Z,101304.84
2023-01-05T03:55:34.630Z,101308.22
2023-01-05T03:58:01.090Z,101300.66
2023-01-05T04:00:27.720Z,101306.66
2023-01-05T04:02:54.482Z,101316.84
2023-01-05T04:05:21.305Z,101310.94
2023-01-05T04:07:48.275Z,101306.56
2023-01-05T04:10:15.175Z,101309.28
2023-01-05T04:12:41.821Z,101308.69
2023-01-05T04:15:08.982Z,101314.47
2023-01-05T04:17:35.502Z,101309.09
2023-01-05T04:20:02.053Z,101316.84
2023-01-05T04:22:28.645Z,101310.06
2023-01-05T04:24:55.152Z,101312.03
2023-01-05T04:27:21.813Z,101305.06
2023-01-05T04:29:48.836Z,101316.16
2023-01-05T04:32:15.573Z,101319.50
2023-01-05T04:34:42.079Z,101312.50
2023-01-05T04:37:08.616Z,101302.53
2023-01-05T04:39:35.205Z,101307.81
2023-01-05T04:42:01.788Z,101312.81
2023-01-05T04:44:28.360Z,101308.69
2023-01-05T04:46:54.934Z,101310.84
2023-01-05T04:49:21.478Z,101309.00
2023-01-05T04:51:48.029Z,101310.28
2023-01-05T04:54:14.667Z,101312.50
2023-01-05T04:56:41.194Z,101311.03
2023-01-05T04:59:07.717Z,101314.47
2023-01-05T05:01:34.338Z,101312.22
2023-01-05T05:04:00.965Z,101318.72
2023-01-05T05:06:27.539Z,101311.75
2023-01-05T05:08:54.086Z,101310.84
2023-01-05T05:11:21.512Z,101310.75
2023-01-05T05:13:48.087Z,101307.72
2023-01-05T05:16:14.690Z,101305.94
2023-01-05T05:18:41.241Z,101307.22
2023-01-05T05:21:07.883Z,101313.69
2023-01-05T05:23:34.539Z,101308.56
2023-01-05T05:26:01.143Z,101309.28
2023-01-05T05:28:30.372Z,101309.47
2023-01-05T05:30:57.427Z,101310.47
2023-01-05T05:33:24.836Z,101308.66
2023-01-05T05:35:51.431Z,101307.09
2023-01-05T05:38:18.126Z,101295.69
2023-01-05T05:40:44.752Z,101300.03
2023-01-05T05:43:11.290Z,101300.63
2023-01-05T05:45:37.737Z,101297.22
2023-01-05T05:48:05.675Z,101301.22
2023-01-05T05:50:32.971Z,101308.09
2023-01-05T05:52:59.962Z,101303.69
2023-01-05T05:55:26.590Z,101296.03
2023-01-05T05:57:53.368Z,101295.16
2023-01-05T06:00:19.957Z,101303.00
2023-01-05T06:02:46.680Z,101301.44
2023-01-05T06:05:13.397Z,101297.78
2023-01-05T06:07:39.927Z,101302.41
2023-01-05T06:10:07.278Z,101298.06
2023-01-05T06:12:34.008Z,101297.75
2023-01-05T06:15:00.577Z,101293.25
2023-01-05T06:17:27.089Z,101293.13
2023-01-05T06:19:53.670Z,101302.41
2023-01-05T06:22:20.178Z,101301.00
2023-01-05T06:24:46.764Z,101293.13
2023-01-05T06:27:13.332Z,101300.94
2023-01-05T06:29:39.870Z,101296.22
2023-01-05T06:32:06.377Z,101303.28
2023-01-05T06:34:33.658Z,101292.56
2023-01-05T06:37:02.446Z,101289.19
2023-01-05T06:39:29.238Z,101290.81
2023-01-05T06:41:55.957Z,101302.13
2023-01-05T06:44:22.493Z,101293.06
2023-01-05T06:46:49.056Z,101287.94
2023-01-05T06:49:15.691Z,101298.88
2023-01-05T06:51:42.342Z,101293.84
2023-01-05T06:54:09.028Z,101287.09
2023-01-05T06:56:35.743Z,101293.06
2023-01-05T06:59:02.372Z,101292.69
2023-01-05T07:01:29.085Z,101288.94
2023-01-05T07:03:55.913Z,101291.56
2023-01-05T07:06:22.529Z,101298.69
2023-01-05T07:08:49.302Z,101298.28
2023-01-05T07:11:15.840Z,101300.38
2023-01-05T07:13:42.432Z,101294.91
2023-01-05T07:16:09.042Z,101300.75
2023-01-05T07:18:35.578Z,101288.75
2023-01-05T07:21:02.119Z,101293.84
2023-01-05T07:23:32.145Z,101297.47
2023-01-05T07:26:01.952Z,101294.25
2023-01-05T07:28:28.733Z,101296.59
2023-01-05T07:30:55.450Z,101291.56
2023-01-05T07:33:22.059Z,101295.28
2023-01-05T07:35:48.646Z,101290.00
2023-01-05T07:38:15.262Z,101286.84
2023-01-05T07:40:41.777Z,101293.63
2023-01-05T07:43:08.377Z,101290.19
2023-01-05T07:45:35.023Z,101289.41
2023-01-05T07:48:02.680Z,101293.88
2023-01-05T07:50:30.126Z,101290.56
2023-01-05T07:52:58.943Z,101290.75
2023-01-05T07:55:25.670Z,101289.25
2023-01-05T07:57:52.242Z,101291.91
2023-01-05T08:00:19.038Z,101286.88
2023-01-05T08:02:46.353Z,101297.09
2023-01-05T08:05:13.008Z,101291.41
2023-01-05T08:07:39.620Z,101293.97
2023-01-05T08:10:25.312Z,101297.28
2023-01-05T08:13:10.759Z,101290.69
2023-01-05T08:15:37.303Z,101286.78
2023-01-05T08:18:04.023Z,101292.69
2023-01-05T08:20:30.863Z,101284.31
2023-01-05T08:22:57.901Z,101297.34
2023-01-05T08:25:24.749Z,101291.91
2023-01-05T08:27:51.271Z,101291.28
2023-01-05T08:30:17.929Z,101301.06
2023-01-05T08:32:44.595Z,101285.81
2023-01-05T08:35:11.443Z,101292.88
2023-01-05T08:37:37.993Z,101298.09
2023-01-05T08:40:05.068Z,101292.97
2023-01-05T08:42:31.876Z,101293.75
2023-01-05T08:44:58.932Z,101299.16
2023-01-05T08:47:28.372Z,101311.13
2023-01-05T08:49:55.438Z,101303.72
2023-01-05T08:52:23.273Z,101304.44
2023-01-05T08:54:50.464Z,101315.31
2023-01-05T08:57:17.218Z,101310.53
2023-01-05T08:59:43.761Z,101305.25
2023-01-05T09:02:12.432Z,101305.41
2023-01-05T09:04:39.084Z,101303.28
2023-01-05T09:07:05.720Z,101298.19
2023-01-05T09:09:32.217Z,101306.72
2023-01-05T09:11:58.849Z,101300.66
2023-01-05T09:14:25.353Z,101303.72
2023-01-05T09:17:08.271Z,101302.75
2023-01-05T09:19:36.351Z,101307.44
2023-01-05T09:22:03.195Z,101314.63
2023-01-05T09:24:29.954Z,101316.25
2023-01-05T09:26:56.801Z,101306.19
2023-01-05T09:29:23.467Z,101317.38
2023-01-05T09:31:50.093Z,101320.59
2023-01-05T09:34:19.154Z,101317.19
2023-01-05T09:36:46.203Z,101322.09
2023-01-05T09:39:12.788Z,101307.63
2023-01-05T09:41:47.372Z,101321.69
2023-01-05T09:44:22.938Z,101315.19
2023-01-05T09:46:51.348Z,101310.47
2023-01-05T09:49:23.099Z,101311.81
2023-01-05T09:51:54.818Z,101316.25
2023-01-05T09:54:24.773Z,101319.22
2023-01-05T09:57:09.062Z,101318.25
2023-01-05T09:59:44.423Z,101317.53
2023-01-05T10:02:33.871Z,101316.63
2023-01-05T10:05:02.478Z,101311.41
2023-01-05T10:07:40.588Z,101310.16
2023-01-05T10:10:33.222Z,101309.44
2023-01-05T10:13:03.105Z,101301.75
2023-01-05T10:15:52.785Z,101300.56
2023-01-05T10:18:24.387Z,101298.56
2023-01-05T10:21:45.468Z,101302.75
2023-01-05T10:24:31.412Z,101298.59
2023-01-05T10:27:24.807Z,101298.91
2023-01-05T10:30:16.315Z,101306.28
2023-01-05T10:33:25.968Z,101296.81
2023-01-05T10:36:01.001Z,101297.94
2023-01-05T10:38:35.151Z,101293.63
2023-01-05T10:41:32.610Z,101287.44
2023-01-05T10:44:25.036Z,101283.53
2023-01-05T10:46:52.851Z,101270.63
2023-01-05T10:49:26.130Z,101270.16
2023-01-05T10:51:56.530Z,101263.09
2023-01-05T10:54:36.600Z,101262.91
2023-01-05T10:57:39.477Z,101256.44
2023-01-05T11:00:15.435Z,101250.09
2023-01-05T11:03:01.534Z,101252.81
2023-01-05T11:05:33.561Z,101244.50
2023-01-05T11:08:06.537Z,101240.09
2023-01-05T11:10:48.100Z,101236.28
2023-01-05T11:13:29.889Z,101232.69
2023-01-05T11:16:02.644Z,101227.63
2023-01-05T11:18:36.986Z,101221.47
2023-01-05T11:21:23.881Z,101218.44
2023-01-05T11:23:53.508Z,101216.28
2023-01-05T11:26:19.969Z,101204.56
2023-01-05T11:29:08.117Z,101199.88
2023-01-05T11:31:57.905Z,101188.84
2023-01-05T11:34:37.798Z,101185.88
2023-01-05T11:37:08.816Z,101184.41
2023-01-05T11:39:47.376Z,101169.31
2023-01-05T11:42:35.836Z,101168.72
2023-01-05T11:45:04.602Z,101166.81
2023-01-05T11:47:43.893Z,101168.03
2023-01-05T11:50:14.149Z,101162.25
2023-01-05T11:52:47.271Z,101159.69
2023-01-05T11:55:19.973Z,101156.81
2023-01-05T11:57:48.189Z,101149.94
2023-01-05T12:00:37.575Z,101143.09
2023-01-05T12:03:36.551Z,101135.78
2023-01-05T12:06:30.083Z,101133.84
2023-01-05T12:09:05.908Z,101129.03
2023-01-05T12:11:58.352Z,101126.75
2023-01-05T12:14:53.446Z,101120.53
2023-01-05T12:17:43.313Z,101115.19
2023-01-05T12:20:34.939Z,101111.31
2023-01-05T12:23:19.951Z,101103.25
2023-01-05T12:26:04.398Z,101099.53
2023-01-05T12:28:43.093Z,101098.28
2023-01-05T12:34:15.281Z,101096.44
2023-01-05T12:37:36.075Z,101094.47
2023-01-05T12:40:15.751Z,101089.41
2023-01-05T12:43:03.391Z,101084.63
2023-01-05T12:45:39.185Z,101085.06
2023-01-05T12:48:19.055Z,101072.41
2023-01-05T12:50:52.585Z,101073.41
2023-01-05T12:53:40.801Z,101067.25
2023-01-05T12:56:23.233Z,101057.09
2023-01-05T12:59:14.788Z,101055.03
2023-01-05T13:01:50.166Z,101053.22
2023-01-05T13:04:38.937Z,101049.75
2023-01-05T13:07:18.134Z,101041.06
2023-01-05T13:09:52.708Z,101044.00
2023-01-05T13:12:19.433Z,101045.56
2023-01-05T13:15:15.851Z,101045.75
2023-01-05T13:17:54.886Z,101034.09
2023-01-05T13:20:42.471Z,101034.78
2023-01-05T13:23:19.858Z,101026.75
2023-01-05T13:25:58.475Z,101027.75
2023-01-05T13:28:28.418Z,101026.88
2023-01-05T13:31:21.924Z,101025.75
2023-01-05T13:34:16.996Z,101018.72
2023-01-05T13:37:24.234Z,101025.06
2023-01-05T13:40:00.530Z,101023.50
2023-01-05T13:43:01.444Z,101012.84
2023-01-05T13:45:33.928Z,101007.97
2023-01-05T13:48:20.156Z,101016.97
2023-01-05T13:51:10.843Z,101011.97
2023-01-05T13:53:41.605Z,101004.19
2023-01-05T13:56:22.152Z,101007.19
2023-01-05T13:58:53.115Z,100999.09
2023-01-05T14:01:51.686Z,101004.25
2023-01-05T14:04:23.169Z,100996.25
2023-01-05T14:06:54.224Z,101002.19
2023-01-05T14:09:35.845Z,100997.03
2023-01-05T14:12:08.502Z,101003.00
2023-01-05T14:15:01.939Z,100997.59
2023-01-05T14:17:53.150Z,100991.31
2023-01-05T14:20:31.659Z,100990.66
2023-01-05T14:22:58.596Z,100979.50
2023-01-05T14:25:46.224Z,100978.47
2023-01-05T14:28:30.819Z,100986.50
2023-01-05T14:31:15.488Z,100987.59
2023-01-05T14:34:15.415Z,100979.81
2023-01-05T14:36:57.089Z,100977.69
2023-01-05T14:39:28.977Z,100970.34
2023-01-05T14:42:06.610Z,100976.94
2023-01-05T14:44:43.074Z,100972.22
2023-01-05T14:47:11.123Z,100963.56
2023-01-05T14:49:54.635Z,100968.53
2023-01-05T14:52:54.114Z,100965.16
2023-01-05T14:55:38.761Z,100962.50
2023-01-05T14:58:11.841Z,100967.38
2023-01-05T15:00:50.236Z,100968.38
2023-01-05T15:03:35.651Z,100962.03
2023-01-05T15:06:13.182Z,100962.22
2023-01-05T15:09:09.121Z,100959.84
2023-01-05T15:11:43.811Z,100956.44
2023-01-05T15:14:32.077Z,100957.72
2023-01-05T15:17:23.951Z,100947.50
2023-01-05T15:20:14.342Z,100951.34
2023-01-05T15:22:59.252Z,100951.41
2023-01-05T15:26:02.824Z,100951.41
2023-01-05T15:28:51.170Z,100946.94
2023-01-05T15:31:30.495Z,100950.28
2023-01-05T15:34:15.917Z,100945.63
2023-01-05T15:36:51.888Z,100942.06
2023-01-05T15:39:27.993Z,100946.53
2023-01-05T15:41:58.070Z,100938.59
2023-01-05T15:44:30.092Z,100936.28
2023-01-05T15:46:56.946Z,100937.84
2023-01-05T15:49:28.903Z,100940.34
2023-01-05T15:51:56.237Z,100935.03
2023-01-05T15:54:29.034Z,100940.28
2023-01-05T15:56:56.361Z,100931.63
2023-01-05T15:59:38.819Z,100935.03
2023-01-05T16:02:37.942Z,100928.66
2023-01-05T16:05:18.482Z,100928.53
2023-01-05T16:07:53.293Z,100923.31
2023-01-05T16:10:24.392Z,100925.03
2023-01-05T16:12:56.513Z,100920.75
2023-01-05T16:15:25.185Z,100928.44
2023-01-05T16:17:55.581Z,100921.63
2023-01-05T16:20:24.682Z,100917.38
2023-01-05T16:23:08.384Z,100918.88
2023-01-05T16:25:50.770Z,100918.13
2023-01-05T16:28:20.229Z,100915.44
2023-01-05T16:30:48.886Z,100917.06
2023-01-05T16:33:40.271Z,100909.41
2023-01-05T16:36:10.445Z,100911.00
2023-01-05T16:38:37.075Z,100913.47
2023-01-05T16:41:23.769Z,100913.41
2023-01-05T16:44:00.175Z,100911.50
2023-01-05T16:46:36.154Z,100910.63
2023-01-05T16:49:05.785Z,100910.63
2023-01-05T16:51:32.269Z,100901.72
2023-01-05T16:54:10.699Z,100906.22
2023-01-05T16:56:37.223Z,100895.66
2023-01-05T16:59:25.042Z,100901.84
2023-01-05T17:01:51.745Z,100901.16
2023-01-05T17:04:18.434Z,100899.34
2023-01-05T17:06:47.743Z,100906.16
2023-01-05T17:09:23.410Z,100896.44
2023-01-05T17:11:49.958Z,100910.84
2023-01-05T17:14:18.348Z,100899.34
2023-01-05T17:16:45.064Z,100896.22
2023-01-05T17:19:17.480Z,100896.59
2023-01-05T17:21:49.919Z,100890.50
2023-01-05T17:24:17.077Z,100898.16
2023-01-05T17:26:45.437Z,100888.84
2023-01-05T17:29:19.699Z,100885.69
2023-01-05T17:31:46.300Z,100886.00
2023-01-05T17:34:13.099Z,100882.16
2023-01-05T17:36:40.230Z,100879.56
2023-01-05T17:39:06.955Z,100873.56
2023-01-05T17:41:33.708Z,100879.47
2023-01-05T17:44:00.942Z,100876.63
2023-01-05T17:46:31.968Z,100878.81
2023-01-05T17:49:00.645Z,100872.59
2023-01-05T17:51:28.435Z,100870.81
2023-01-05T17:53:56.087Z,100872.59
2023-01-05T17:56:22.824Z,100867.56
2023-01-05T17:58:49.847Z,100865.28
2023-01-05T18:01:16.913Z,100863.13
2023-01-05T18:03:43.510Z,100857.16
2023-01-05T18:06:10.232Z,100857.16
2023-01-05T18:08:37.745Z,100857.38
2023-01-05T18:11:08.119Z,100855.66
2023-01-05T18:13:35.167Z,100855.47
2023-01-05T18:16:07.138Z,100847.72
2023-01-05T18:21:03.010Z,100844.75
2023-01-05T18:23:30.297Z,100847.31
2023-01-05T18:26:02.488Z,100845.63
2023-01-05T18:28:28.983Z,100835.25
2023-01-05T18:30:56.269Z,100838.63
2023-01-05T18:33:23.172Z,100838.56
2023-01-05T18:35:50.810Z,100836.69
2023-01-05T18:38:20.868Z,100834.06
2023-01-05T18:40:49.450Z,100832.34
2023-01-05T18:43:16.395Z,100822.16
2023-01-05T18:45:42.978Z,100821.19
2023-01-05T18:48:09.681Z,100822.16
2023-01-05T18:50:41.226Z,100815.91
2023-01-05T18:53:07.785Z,100807.97
2023-01-05T18:55:34.681Z,100797.44
2023-01-05T18:58:01.201Z,100795.97
2023-01-05T19:00:27.805Z,100794.84
2023-01-05T19:02:54.370Z,100784.41
2023-01-05T19:05:20.973Z,100780.69
2023-01-05T19:07:53.406Z,100770.78
2023-01-05T19:10:20.297Z,100755.09
2023-01-05T19:12:46.898Z,100746.50
2023-01-05T19:15:13.787Z,100743.75
2023-01-05T19:17:40.441Z,100740.00
2023-01-05T19:20:07.276Z,100732.50
2023-01-05T19:22:34.897Z,100728.91
2023-01-05T19:25:01.482Z,100714.25
2023-01-05T19:27:28.158Z,100715.78
2023-01-05T19:29:54.832Z,100708.75
2023-01-05T19:32:21.445Z,100707.91
2023-01-05T19:34:48.007Z,100701.84
2023-01-05T19:37:14.537Z,100689.50
2023-01-05T19:39:41.192Z,100690.16
2023-01-05T19:42:07.873Z,100679.13
2023-01-05T19:44:34.457Z,100669.91
2023-01-05T19:47:00.956Z,100670.50
2023-01-05T19:49:28.176Z,100661.28
2023-01-05T19:51:54.999Z,100650.66
2023-01-05T19:54:22.549Z,100658.06
2023-01-05T19:56:49.487Z,100653.47
2023-01-05T19:59:26.165Z,100651.44
2023-01-05T20:01:54.863Z,100642.03
2023-01-05T20:04:21.436Z,100631.59
2023-01-05T20:06:47.974Z,100609.56
2023-01-05T20:09:17.576Z,100613.59
2023-01-05T20:11:47.663Z,100608.00
2023-01-05T20:14:23.792Z,100609.50
2023-01-05T20:17:00.380Z,100607.94
2023-01-05T20:19:28.827Z,100601.09
2023-01-05T20:21:57.082Z,100606.53
2023-01-05T20:24:28.303Z,100600.69
2023-01-05T20:27:00.681Z,100597.00
2023-01-05T20:29:28.336Z,100595.50
2023-01-05T20:32:02.179Z,100601.19
2023-01-05T20:34:32.294Z,100596.69
2023-01-05T20:37:00.193Z,100574.34
2023-01-05T20:39:26.738Z,100570.81
2023-01-05T20:41:54.095Z,100559.44
2023-01-05T20:44:24.161Z,100560.34
2023-01-05T20:46:53.628Z,100552.53
2023-01-05T20:49:21.634Z,100556.56
2023-01-05T20:51:48.377Z,100548.47
2023-01-05T20:54:15.143Z,100544.09
2023-01-05T20:56:43.736Z,100537.09
2023-01-05T20:59:14.989Z,100531.91
2023-01-05T21:01:42.082Z,100526.59
2023-01-05T21:04:08.656Z,100518.06
2023-01-05T21:06:35.663Z,100521.31
2023-01-05T21:09:04.023Z,100517.03
2023-01-05T21:11:30.655Z,100512.81
2023-01-05T21:13:58.299Z,100506.81
2023-01-05T21:16:30.359Z,100496.66
2023-01-05T21:18:59.250Z,100499.22
2023-01-05T21:21:28.936Z,100504.91
2023-01-05T21:23:56.064Z,100496.44
2023-01-05T21:26:23.565Z,100489.56
2023-01-05T21:28:52.261Z,100486.03
2023-01-05T21:31:22.630Z,100480.03
2023-01-05T21:33:49.617Z,100473.91
2023-01-05T21:36:18.970Z,100471.34
2023-01-05T21:39:01.712Z,100478.13
2023-01-05T21:41:49.465Z,100484.06
2023-01-05T21:44:16.262Z,100478.88
2023-01-05T21:46:43.516Z,100496.09
2023-01-05T21:49:12.095Z,100494.09
2023-01-05T21:51:57.436Z,100496.41
2023-01-05T21:54:43.312Z,100495.44
2023-01-05T21:57:10.962Z,100493.66
2023-01-05T21:59:37.620Z,100491.75
2023-01-05T22:02:04.219Z,100481.38
2023-01-05T22:04:30.773Z,100491.47
2023-01-05T22:06:57.451Z,100477.81
2023-01-05T22:09:24.169Z,100481.97
2023-01-05T22:11:50.758Z,100490.88
2023-01-05T22:14:17.378Z,100494.75
2023-01-05T22:16:44.622Z,100515.84
2023-01-05T22:19:11.305Z,100522.56
2023-01-05T22:21:38.262Z,100528.69
2023-01-05T22:24:05.994Z,100550.00
2023-01-05T22:26:32.667Z,100557.81
2023-01-05T22:28:59.207Z,100574.66
2023-01-05T22:31:28.757Z,100588.69
2023-01-05T22:33:57.948Z,100598.50
2023-01-05T22:36:26.535Z,100601.00
2023-01-05T22:38:54.403Z,100606.50
2023-01-05T22:41:24.659Z,100600.38
2023-01-05T22:43:51.558Z,100602.84
2023-01-05T22:46:24.294Z,100601.91
2023-01-05T22:48:53.178Z,100602.50
2023-01-05T22:51:22.360Z,100604.16
2023-01-05T22:53:50.030Z,100609.19
2023-01-05T22:56:17.974Z,100604.66
2023-01-05T22:58:44.722Z,100607.94
2023-01-05T23:01:13.174Z,100603.59
2023-01-05T23:03:40.603Z,100592.56
2023-01-05T23:06:07.564Z,100596.78
2023-01-05T23:08:35.733Z,100592.41
2023-01-05T23:11:07.933Z,100595.53
2023-01-05T23:13:35.288Z,100595.84
2023-01-05T23:16:02.221Z,100602.25
2023-01-05T23:18:28.862Z,100601.75
2023-01-05T23:20:58.599Z,100593.25
2023-01-05T23:23:25.598Z,100594.03
2023-01-05T23:25:52.834Z,100588.81
2023-01-05T23:28:21.957Z,100578.09
2023-01-05T23:30:53.376Z,100584.00
2023-01-05T23:33:22.290Z,100582.09
2023-01-05T23:35:51.210Z,100583.31
2023-01-05T23:38:18.322Z,100581.16
2023-01-05T23:40:49.579Z,100581.16
2023-01-05T23:43:19.397Z,100590.38
2023-01-05T23:45:48.041Z,100584.41
2023-01-05T23:48:15.920Z,100583.06
2023-01-05T23:50:44.025Z,100598.88
2023-01-05T23:53:11.078Z,100601.75
2023-01-05T23:55:38.836Z,100603.28
2023-01-05T23:58:05.872Z,100604.91
